createdAt,value
2022-09-18T00:01:31.574Z,10.85
2022-09-18T00:04:00.035Z,10.86
2022-09-18T00:06:28.459Z,10.86
2022-09-18T00:08:57.679Z,10.82
2022-09-18T00:11:26.759Z,10.75
2022-09-18T00:13:55.487Z,10.77
2022-09-18T00:16:24.620Z,10.78
2022-09-18T00:18:51.690Z,10.76
2022-09-18T00:21:19.578Z,10.77
2022-09-18T00:23:47.195Z,10.80
2022-09-18T00:26:15.654Z,10.88
2022-09-18T00:28:42.505Z,10.95
2022-09-18T00:31:11.451Z,10.95
2022-09-18T00:33:40.088Z,10.93
2022-09-18T00:36:08.599Z,10.91
2022-09-18T00:38:35.959Z,10.89
2022-09-18T00:41:03.792Z,10.87
2022-09-18T00:43:32.808Z,10.87
2022-09-18T00:46:07.042Z,10.90
2022-09-18T00:48:40.478Z,10.89
2022-09-18T00:51:07.734Z,10.90
2022-09-18T00:53:36.083Z,10.91
2022-09-18T00:56:04.073Z,10.94
2022-09-18T00:58:31.316Z,10.90
2022-09-18T01:00:59.278Z,10.91
2022-09-18T01:03:26.125Z,10.94
2022-09-18T01:06:01.884Z,10.94
2022-09-18T01:08:43.892Z,10.94
2022-09-18T01:11:18.460Z,10.94
2022-09-18T01:13:54.592Z,10.92
2022-09-18T01:16:32.305Z,10.95
2022-09-18T01:19:17.942Z,10.99
2022-09-18T01:21:50.462Z,11.02
2022-09-18T01:24:36.130Z,11.06
2022-09-18T01:27:06.105Z,11.08
2022-09-18T01:29:53.035Z,11.11
2022-09-18T01:32:41.139Z,11.14
2022-09-18T01:35:30.171Z,11.15
2022-09-18T01:38:06.808Z,11.18
2022-09-18T01:40:36.434Z,11.19
2022-09-18T01:43:06.133Z,11.18
2022-09-18T01:45:34.687Z,11.11
2022-09-18T01:48:08.693Z,11.12
2022-09-18T01:50:42.821Z,11.11
2022-09-18T01:53:21.661Z,11.08
2022-09-18T01:58:45.018Z,10.95
2022-09-18T02:01:14.851Z,10.99
2022-09-18T02:03:46.074Z,10.94
2022-09-18T02:06:18.192Z,10.92
2022-09-18T02:08:50.444Z,10.91
2022-09-18T02:11:22.405Z,10.87
2022-09-18T02:14:04.149Z,10.84
2022-09-18T02:17:01.003Z,10.81
2022-09-18T02:19:30.337Z,10.82
2022-09-18T02:22:03.838Z,10.78
2022-09-18T02:24:33.820Z,10.71
2022-09-18T02:27:01.472Z,10.70
2022-09-18T02:29:31.391Z,10.66
2022-09-18T02:32:01.446Z,10.66
2022-09-18T02:34:30.282Z,10.59
2022-09-18T02:37:09.026Z,10.59
2022-09-18T02:39:36.375Z,10.58
2022-09-18T02:42:03.103Z,10.63
2022-09-18T02:44:35.943Z,10.67
2022-09-18T02:47:21.672Z,10.69
2022-09-18T02:50:07.764Z,10.73
2022-09-18T02:52:40.942Z,10.76
2022-09-18T02:55:11.564Z,10.79
2022-09-18T02:58:15.997Z,10.79
2022-09-18T03:00:50.202Z,10.80
2022-09-18T03:03:28.878Z,10.79
2022-09-18T03:06:01.749Z,10.78
2022-09-18T03:08:31.139Z,10.80
2022-09-18T03:10:58.171Z,10.85
2022-09-18T03:13:27.218Z,10.94
2022-09-18T03:15:55.659Z,11.01
2022-09-18T03:18:22.630Z,11.07
2022-09-18T03:20:50.759Z,11.10
2022-09-18T03:23:17.853Z,11.07
2022-09-18T03:25:49.050Z,11.08
2022-09-18T03:28:16.773Z,11.13
2022-09-18T03:30:44.681Z,11.19
2022-09-18T03:33:13.737Z,11.26
2022-09-18T03:35:45.180Z,11.33
2022-09-18T03:38:13.472Z,11.28
2022-09-18T03:40:47.326Z,11.24
2022-09-18T03:43:15.132Z,11.22
2022-09-18T03:45:42.635Z,11.22
2022-09-18T03:48:09.417Z,11.20
2022-09-18T03:50:37.959Z,11.18
2022-09-18T03:53:08.614Z,11.18
2022-09-18T03:56:01.679Z,11.22
2022-09-18T03:58:57.716Z,11.28
2022-09-18T04:01:34.939Z,11.31
2022-09-18T04:04:37.013Z,11.35
2022-09-18T04:07:04.178Z,11.38
2022-09-18T04:09:51.872Z,11.39
2022-09-18T04:12:19.043Z,11.39
2022-09-18T04:14:55.307Z,11.33
2022-09-18T04:17:23.922Z,11.29
2022-09-18T04:19:53.793Z,11.25
2022-09-18T04:22:21.857Z,11.19
2022-09-18T04:24:50.457Z,11.14
2022-09-18T04:27:17.748Z,11.07
2022-09-18T04:29:45.606Z,11.02
2022-09-18T04:32:15.900Z,10.98
2022-09-18T04:34:43.490Z,10.92
2022-09-18T04:37:11.512Z,10.87
2022-09-18T04:39:39.549Z,10.84
2022-09-18T04:42:06.395Z,10.84
2022-09-18T04:44:33.501Z,10.81
2022-09-18T04:47:00.945Z,10.86
2022-09-18T04:49:28.003Z,10.94
2022-09-18T04:51:54.857Z,11.07
2022-09-18T04:54:21.919Z,11.17
2022-09-18T04:56:48.666Z,11.22
2022-09-18T04:59:17.173Z,11.27
2022-09-18T05:01:47.452Z,11.31
2022-09-18T05:04:15.625Z,11.29
2022-09-18T05:06:58.509Z,11.25
2022-09-18T05:09:25.561Z,11.22
2022-09-18T05:11:54.576Z,11.20
2022-09-18T05:14:23.600Z,11.21
2022-09-18T05:16:53.989Z,11.21
2022-09-18T05:19:27.859Z,11.20
2022-09-18T05:22:01.946Z,11.24
2022-09-18T05:24:32.922Z,11.29
2022-09-18T05:28:00.941Z,11.43
2022-09-18T05:30:33.597Z,11.51
2022-09-18T05:33:04.005Z,11.58
2022-09-18T05:35:32.768Z,11.66
2022-09-18T05:38:01.952Z,11.71
2022-09-18T05:40:33.089Z,11.78
2022-09-18T05:43:03.083Z,11.85
2022-09-18T05:45:32.464Z,11.92
2022-09-18T05:48:05.707Z,11.93
2022-09-18T05:50:35.802Z,11.92
2022-09-18T05:53:10.292Z,11.95
2022-09-18T05:55:49.325Z,11.97
2022-09-18T05:58:17.579Z,12.01
2022-09-18T06:00:47.480Z,12.00
2022-09-18T06:03:22.594Z,12.08
2022-09-18T06:05:53.911Z,12.17
2022-09-18T06:08:22.714Z,12.21
2022-09-18T06:10:50.033Z,12.27
2022-09-18T06:13:18.092Z,12.35
2022-09-18T06:15:54.954Z,12.35
2022-09-18T06:18:33.417Z,12.34
2022-09-18T06:21:02.477Z,12.29
2022-09-18T06:23:31.223Z,12.27
2022-09-18T06:26:15.001Z,12.28
2022-09-18T06:28:42.782Z,12.30
2022-09-18T06:31:10.861Z,12.31
2022-09-18T06:34:01.240Z,12.32
2022-09-18T06:36:28.283Z,12.35
2022-09-18T06:39:03.607Z,12.38
2022-09-18T06:41:30.518Z,12.42
2022-09-18T06:43:58.599Z,12.48
2022-09-18T06:46:39.537Z,12.53
2022-09-18T06:49:16.807Z,12.50
2022-09-18T06:51:48.575Z,12.54
2022-09-18T06:54:17.142Z,12.52
2022-09-18T06:56:45.543Z,12.60
2022-09-18T06:59:14.925Z,12.54
2022-09-18T07:01:41.757Z,12.52
2022-09-18T07:04:15.749Z,12.56
2022-09-18T07:06:45.811Z,12.61
2022-09-18T07:09:14.669Z,12.62
2022-09-18T07:11:54.095Z,12.72
2022-09-18T07:14:29.965Z,12.72
2022-09-18T07:17:03.528Z,12.79
2022-09-18T07:19:32.300Z,12.90
2022-09-18T07:21:59.249Z,12.91
2022-09-18T07:24:26.482Z,12.90
2022-09-18T07:26:54.602Z,12.97
2022-09-18T07:29:21.878Z,13.03
2022-09-18T07:31:49.978Z,13.09
2022-09-18T07:34:16.883Z,13.22
2022-09-18T07:36:43.687Z,13.28
2022-09-18T07:39:10.811Z,13.25
2022-09-18T07:42:00.426Z,13.21
2022-09-18T07:44:34.332Z,13.06
2022-09-18T07:47:02.856Z,13.03
2022-09-18T07:49:37.739Z,13.04
2022-09-18T07:52:07.157Z,13.20
2022-09-18T07:54:43.028Z,13.03
2022-09-18T07:57:19.726Z,13.13
2022-09-18T08:00:01.534Z,13.26
2022-09-18T08:02:31.981Z,13.37
2022-09-18T08:04:58.866Z,13.45
2022-09-18T08:07:54.926Z,13.61
2022-09-18T08:10:35.308Z,13.76
2022-09-18T08:13:32.249Z,13.88
2022-09-18T08:16:10.959Z,13.96
2022-09-18T08:19:16.445Z,14.08
2022-09-18T08:21:51.620Z,14.20
2022-09-18T08:24:19.177Z,14.24
2022-09-18T08:26:46.188Z,14.20
2022-09-18T08:29:19.372Z,14.17
2022-09-18T08:32:00.105Z,14.20
2022-09-18T08:34:28.373Z,14.32
2022-09-18T08:36:57.655Z,14.43
2022-09-18T08:39:45.096Z,14.58
2022-09-18T08:43:00.704Z,14.69
2022-09-18T08:45:35.684Z,14.64
2022-09-18T08:48:15.658Z,14.69
2022-09-18T08:50:46.869Z,14.81
2022-09-18T08:53:19.927Z,15.07
2022-09-18T08:56:16.609Z,14.95
2022-09-18T08:59:05.456Z,15.07
2022-09-18T09:01:35.339Z,15.17
2022-09-18T09:04:12.873Z,15.32
2022-09-18T09:07:17.239Z,15.65
2022-09-18T09:10:04.661Z,15.99
2022-09-18T09:12:34.560Z,16.21
2022-09-18T09:15:21.879Z,16.23
2022-09-18T09:18:05.257Z,16.17
2022-09-18T09:20:53.648Z,16.11
2022-09-18T09:23:29.718Z,16.04
2022-09-18T09:26:11.583Z,15.86
2022-09-18T09:29:15.507Z,15.95
2022-09-18T09:32:11.113Z,16.08
2022-09-18T09:35:14.173Z,16.41
2022-09-18T09:38:01.329Z,16.58
2022-09-18T09:40:39.589Z,16.51
2022-09-18T09:43:10.151Z,16.63
2022-09-18T09:45:43.181Z,16.93
2022-09-18T09:48:15.019Z,17.05
2022-09-18T09:51:08.539Z,17.04
2022-09-18T09:53:36.087Z,17.08
2022-09-18T09:56:22.682Z,17.22
2022-09-18T09:59:03.983Z,17.36
2022-09-18T10:01:59.411Z,17.16
2022-09-18T10:04:33.653Z,16.98
2022-09-18T10:07:12.807Z,16.91
2022-09-18T10:09:52.572Z,17.11
2022-09-18T10:12:22.760Z,17.40
2022-09-18T10:14:54.837Z,17.68
2022-09-18T10:17:23.420Z,17.76
2022-09-18T10:19:50.619Z,17.92
2022-09-18T10:22:19.599Z,17.26
2022-09-18T10:25:01.795Z,16.90
2022-09-18T10:27:30.176Z,16.98
2022-09-18T10:29:57.245Z,17.14
2022-09-18T10:32:44.115Z,17.13
2022-09-18T10:35:25.424Z,17.28
2022-09-18T10:37:52.288Z,17.36
2022-09-18T10:40:29.553Z,17.38
2022-09-18T10:42:58.902Z,17.46
2022-09-18T10:45:28.888Z,17.21
2022-09-18T10:48:13.794Z,17.41
2022-09-18T10:50:51.814Z,17.57
2022-09-18T10:53:38.855Z,17.83
2022-09-18T10:56:19.457Z,17.88
2022-09-18T10:58:48.396Z,18.18
2022-09-18T11:01:16.253Z,18.02
2022-09-18T11:03:49.828Z,17.76
2022-09-18T11:06:25.414Z,17.56
2022-09-18T11:08:56.742Z,17.57
2022-09-18T11:11:34.799Z,17.52
2022-09-18T11:14:22.373Z,17.48
2022-09-18T11:17:14.974Z,17.37
2022-09-18T11:19:42.136Z,17.27
2022-09-18T11:22:47.567Z,17.22
2022-09-18T11:25:34.610Z,17.32
2022-09-18T11:28:22.502Z,17.13
2022-09-18T11:30:58.550Z,16.96
2022-09-18T11:33:27.500Z,17.09
2022-09-18T11:36:01.947Z,17.19
2022-09-18T11:38:30.456Z,17.17
2022-09-18T11:40:59.467Z,17.26
2022-09-18T11:43:38.384Z,17.44
2022-09-18T11:46:26.492Z,17.66
2022-09-18T11:49:03.767Z,17.35
2022-09-18T11:51:49.815Z,17.12
2022-09-18T11:54:37.372Z,16.78
2022-09-18T11:57:10.514Z,16.73
2022-09-18T11:59:42.372Z,16.46
2022-09-18T12:02:17.450Z,16.19
2022-09-18T12:04:49.385Z,15.95
2022-09-18T12:07:40.764Z,15.77
2022-09-18T12:10:28.404Z,15.44
2022-09-18T12:12:59.367Z,15.20
2022-09-18T12:15:29.086Z,15.11
2022-09-18T12:18:24.825Z,15.09
2022-09-18T12:21:00.389Z,15.05
2022-09-18T12:23:27.679Z,15.12
2022-09-18T12:26:10.068Z,15.33
2022-09-18T12:28:51.461Z,15.47
2022-09-18T12:31:18.284Z,15.54
2022-09-18T12:33:54.734Z,15.39
2022-09-18T12:36:24.611Z,15.37
2022-09-18T12:38:59.553Z,15.25
2022-09-18T12:41:46.649Z,15.06
2022-09-18T12:44:32.612Z,14.75
2022-09-18T12:47:00.722Z,14.72
2022-09-18T12:49:46.304Z,14.67
2022-09-18T12:52:16.161Z,14.62
2022-09-18T12:54:52.231Z,14.61
2022-09-18T12:57:40.168Z,14.64
2022-09-18T13:00:14.919Z,14.62
2022-09-18T13:02:53.670Z,14.70
2022-09-18T13:05:21.706Z,14.78
2022-09-18T13:07:51.668Z,14.82
2022-09-18T13:10:24.029Z,14.89
2022-09-18T13:13:00.405Z,14.82
2022-09-18T13:15:29.439Z,14.88
2022-09-18T13:18:17.478Z,14.97
2022-09-18T13:20:45.249Z,15.04
2022-09-18T13:23:38.806Z,15.12
2022-09-18T13:26:06.624Z,15.20
2022-09-18T13:28:34.083Z,15.21
2022-09-18T13:31:14.287Z,15.27
2022-09-18T13:33:53.273Z,15.30
2022-09-18T13:36:28.747Z,15.25
2022-09-18T13:38:57.302Z,15.18
2022-09-18T13:41:24.330Z,14.71
2022-09-18T13:43:52.092Z,13.84
2022-09-18T13:46:33.622Z,13.20
2022-09-18T13:49:02.192Z,12.87
2022-09-18T13:51:32.328Z,12.57
2022-09-18T13:54:11.323Z,12.28
2022-09-18T13:56:57.117Z,12.21
2022-09-18T13:59:43.116Z,12.17
2022-09-18T14:02:24.089Z,12.10
2022-09-18T14:05:03.569Z,12.12
2022-09-18T14:07:30.895Z,12.27
2022-09-18T14:10:03.241Z,12.43
2022-09-18T14:12:32.907Z,12.54
2022-09-18T14:15:16.797Z,12.67
2022-09-18T14:18:03.361Z,12.80
2022-09-18T14:20:30.970Z,12.93
2022-09-18T14:23:18.006Z,13.01
2022-09-18T14:25:46.362Z,13.09
2022-09-18T14:28:14.718Z,13.18
2022-09-18T14:30:41.612Z,13.27
2022-09-18T14:33:09.060Z,13.32
2022-09-18T14:35:43.489Z,13.39
2022-09-18T14:38:18.408Z,13.41
2022-09-18T14:40:49.158Z,13.45
2022-09-18T14:43:16.886Z,13.42
2022-09-18T14:45:44.591Z,13.47
2022-09-18T14:48:25.485Z,13.37
2022-09-18T14:51:06.030Z,13.39
2022-09-18T14:53:41.375Z,13.40
2022-09-18T14:56:10.483Z,13.47
2022-09-18T14:58:39.481Z,13.63
2022-09-18T15:01:07.749Z,13.64
2022-09-18T15:03:38.880Z,13.71
2022-09-18T15:06:14.288Z,13.71
2022-09-18T15:08:43.044Z,13.69
2022-09-18T15:11:13.414Z,13.70
2022-09-18T15:13:40.212Z,13.71
2022-09-18T15:16:07.227Z,13.71
2022-09-18T15:18:59.786Z,13.67
2022-09-18T15:21:33.599Z,13.66
2022-09-18T15:24:02.393Z,13.71
2022-09-18T15:26:30.735Z,13.72
2022-09-18T15:28:59.055Z,13.77
2022-09-18T15:31:28.967Z,13.79
2022-09-18T15:33:58.314Z,13.85
2022-09-18T15:36:26.878Z,13.90
2022-09-18T15:38:54.896Z,13.93
2022-09-18T15:41:21.679Z,13.94
2022-09-18T15:43:50.379Z,13.94
2022-09-18T15:46:26.175Z,13.96
2022-09-18T15:48:56.226Z,13.95
2022-09-18T15:51:23.299Z,13.91
2022-09-18T15:54:22.631Z,13.93
2022-09-18T15:56:50.948Z,13.92
2022-09-18T15:59:22.538Z,13.92
2022-09-18T16:01:50.198Z,13.91
2022-09-18T16:04:22.944Z,13.89
2022-09-18T16:07:13.321Z,13.86
2022-09-18T16:09:42.055Z,13.83
2022-09-18T16:12:29.055Z,13.80
2022-09-18T16:15:01.088Z,13.78
2022-09-18T16:17:36.001Z,13.76
2022-09-18T16:20:22.931Z,13.77
2022-09-18T16:22:50.854Z,13.78
2022-09-18T16:25:22.295Z,13.76
2022-09-18T16:27:50.216Z,13.74
2022-09-18T16:30:17.559Z,13.73
2022-09-18T16:32:44.453Z,13.70
2022-09-18T16:35:15.444Z,13.69
2022-09-18T16:37:44.054Z,13.65
2022-09-18T16:40:18.474Z,13.61
2022-09-18T16:42:45.632Z,13.57
2022-09-18T16:45:15.421Z,13.54
2022-09-18T16:47:44.502Z,13.52
2022-09-18T16:50:11.774Z,13.47
2022-09-18T16:52:38.823Z,13.45
2022-09-18T16:55:07.453Z,13.43
2022-09-18T16:57:34.595Z,13.40
2022-09-18T17:00:05.779Z,13.37
2022-09-18T17:02:36.574Z,13.31
2022-09-18T17:05:03.771Z,13.27
2022-09-18T17:07:35.834Z,13.26
2022-09-18T17:10:03.452Z,13.24
2022-09-18T17:12:30.846Z,13.24
2022-09-18T17:14:57.698Z,13.21
2022-09-18T17:17:24.813Z,13.20
2022-09-18T17:19:53.080Z,13.19
2022-09-18T17:22:22.737Z,13.18
2022-09-18T17:24:51.987Z,13.17
2022-09-18T17:27:21.892Z,13.11
2022-09-18T17:29:48.735Z,13.08
2022-09-18T17:32:16.123Z,13.10
2022-09-18T17:34:44.510Z,13.12
2022-09-18T17:37:13.053Z,13.11
2022-09-18T17:39:40.131Z,13.11
2022-09-18T17:42:09.400Z,13.15
2022-09-18T17:44:37.171Z,13.14
2022-09-18T17:47:06.216Z,13.15
2022-09-18T17:49:33.342Z,13.16
2022-09-18T17:52:00.332Z,13.14
2022-09-18T17:54:52.243Z,13.18
2022-09-18T17:57:18.976Z,13.22
2022-09-18T17:59:45.894Z,13.25
2022-09-18T18:02:13.386Z,13.29
2022-09-18T18:04:40.511Z,13.29
2022-09-18T18:07:07.906Z,13.26
2022-09-18T18:09:36.417Z,13.29
2022-09-18T18:12:04.120Z,13.33
2022-09-18T18:14:31.732Z,13.32
2022-09-18T18:17:00.844Z,13.36
2022-09-18T18:19:30.044Z,13.39
2022-09-18T18:22:05.631Z,13.40
2022-09-18T18:24:33.215Z,13.44
2022-09-18T18:27:00.297Z,13.43
2022-09-18T18:29:27.389Z,13.45
2022-09-18T18:31:55.589Z,13.43
2022-09-18T18:34:26.760Z,13.47
2022-09-18T18:36:53.867Z,13.50
2022-09-18T18:39:21.136Z,13.51
2022-09-18T18:41:59.421Z,13.54
2022-09-18T18:44:26.537Z,13.55
2022-09-18T18:46:53.403Z,13.57
2022-09-18T18:49:23.645Z,13.56
2022-09-18T18:51:51.874Z,13.56
2022-09-18T18:54:20.186Z,13.53
2022-09-18T18:56:47.513Z,13.51
2022-09-18T18:59:17.364Z,13.46
2022-09-18T19:01:47.363Z,13.45
2022-09-18T19:04:16.247Z,13.43
2022-09-18T19:06:44.039Z,13.42
2022-09-18T19:09:19.816Z,13.42
2022-09-18T19:11:48.449Z,13.41
2022-09-18T19:14:19.027Z,13.38
2022-09-18T19:16:46.773Z,13.34
2022-09-18T19:19:15.788Z,13.33
2022-09-18T19:21:43.007Z,13.32
2022-09-18T19:24:10.772Z,13.29
2022-09-18T19:26:38.862Z,13.30
2022-09-18T19:29:07.033Z,13.26
2022-09-18T19:31:36.652Z,13.27
2022-09-18T19:34:09.419Z,13.25
2022-09-18T19:36:36.569Z,13.22
2022-09-18T19:39:05.510Z,13.20
2022-09-18T19:41:41.570Z,13.17
2022-09-18T19:44:17.846Z,13.18
2022-09-18T19:46:46.307Z,13.15
2022-09-18T19:49:16.960Z,13.15
2022-09-18T19:51:44.301Z,13.13
2022-09-18T19:54:11.383Z,13.13
2022-09-18T19:56:43.245Z,13.18
2022-09-18T19:59:10.496Z,13.15
2022-09-18T20:01:38.552Z,13.15
2022-09-18T20:04:07.665Z,13.20
2022-09-18T20:06:34.948Z,13.20
2022-09-18T20:09:02.096Z,13.20
2022-09-18T20:11:28.857Z,13.22
2022-09-18T20:13:55.883Z,13.27
2022-09-18T20:16:24.215Z,13.30
2022-09-18T20:18:51.030Z,13.26
2022-09-18T20:21:19.028Z,13.27
2022-09-18T20:23:46.999Z,13.26
2022-09-18T20:26:16.900Z,13.27
2022-09-18T20:28:45.951Z,13.27
2022-09-18T20:31:23.996Z,13.30
2022-09-18T20:33:55.478Z,13.32
2022-09-18T20:36:23.264Z,13.33
2022-09-18T20:38:51.635Z,13.37
2022-09-18T20:41:21.214Z,13.36
2022-09-18T20:43:52.564Z,13.40
2022-09-18T20:46:23.667Z,13.46
2022-09-18T20:48:56.843Z,13.46
2022-09-18T20:51:25.838Z,13.44
2022-09-18T20:53:54.591Z,13.43
2022-09-18T20:56:21.667Z,13.39
2022-09-18T20:58:52.153Z,13.40
2022-09-18T21:01:21.163Z,13.37
2022-09-18T21:03:49.139Z,13.35
2022-09-18T21:06:22.860Z,13.33
2022-09-18T21:08:53.649Z,13.30
2022-09-18T21:11:25.056Z,13.27
2022-09-18T21:13:54.183Z,13.25
2022-09-18T21:16:22.408Z,13.25
2022-09-18T21:18:49.756Z,13.25
2022-09-18T21:21:17.239Z,13.26
2022-09-18T21:26:41.323Z,13.28
2022-09-18T21:29:10.757Z,13.30
2022-09-18T21:31:44.891Z,13.32
2022-09-18T21:34:12.849Z,13.34
2022-09-18T21:39:36.555Z,13.40
2022-09-18T21:42:19.888Z,13.43
2022-09-18T21:44:46.640Z,13.42
2022-09-18T21:47:13.583Z,13.44
2022-09-18T21:49:40.801Z,13.49
2022-09-18T21:52:08.632Z,13.46
2022-09-18T21:54:35.842Z,13.49
2022-09-18T21:57:03.506Z,13.51
2022-09-18T21:59:30.856Z,13.52
2022-09-18T22:01:58.327Z,13.56
2022-09-18T22:04:28.096Z,13.59
2022-09-18T22:06:55.779Z,13.62
2022-09-18T22:09:24.037Z,13.61
2022-09-18T22:11:51.975Z,13.64
2022-09-18T22:14:23.158Z,13.67
2022-09-18T22:16:50.479Z,13.67
2022-09-18T22:19:17.658Z,13.68
2022-09-18T22:21:46.076Z,13.69
2022-09-18T22:24:15.211Z,13.68
2022-09-18T22:26:44.357Z,13.68
2022-09-18T22:29:21.886Z,13.72
2022-09-18T22:31:49.363Z,13.68
2022-09-18T22:34:18.713Z,13.71
2022-09-18T22:36:46.650Z,13.70
2022-09-18T22:39:14.871Z,13.73
2022-09-18T22:41:41.653Z,13.74
2022-09-18T22:44:08.947Z,13.74
2022-09-18T22:46:37.137Z,13.74
2022-09-18T22:49:04.445Z,13.77
2022-09-18T22:51:32.700Z,13.74
2022-09-18T22:54:04.841Z,13.74
2022-09-18T22:56:31.969Z,13.74
2022-09-18T22:59:02.181Z,13.76
2022-09-18T23:01:31.936Z,13.74
2022-09-18T23:04:06.204Z,13.71
2022-09-18T23:06:48.198Z,13.73
2022-09-18T23:09:16.181Z,13.74
2022-09-18T23:11:43.529Z,13.72
2022-09-18T23:14:12.928Z,13.71
2022-09-18T23:16:40.068Z,13.74
2022-09-18T23:19:10.225Z,13.71
2022-09-18T23:21:38.341Z,13.74
2022-09-18T23:24:08.841Z,13.75
2022-09-18T23:26:37.992Z,13.74
2022-09-18T23:29:06.774Z,13.76
2022-09-18T23:31:34.951Z,13.77
2022-09-18T23:34:02.850Z,13.79
2022-09-18T23:36:34.997Z,13.76
2022-09-18T23:39:12.393Z,13.76
2022-09-18T23:41:39.693Z,13.76
2022-09-18T23:44:08.238Z,13.77
2022-09-18T23:46:35.657Z,13.74
2022-09-18T23:49:03.217Z,13.74
2022-09-18T23:51:32.080Z,13.71
2022-09-18T23:54:00.043Z,13.70
2022-09-18T23:56:29.225Z,13.67
2022-09-18T23:58:58.382Z,13.68
